Estación Meteorológica Peña el Pijo (Robertgarden) [ 09/23/17 05:45:40 CEST ]

Fecha Hora Presion(HPa) Temp (°C) Humedad % Rocio (°C) Viento ( m/s) Direccion Lluvia 1Hora(mm) Lluvia 24H(mm) LLuvia Total(mm)
2017-Jul-31 01:01:40 1009.300 18.9 40 5.0         1437.96
2017-Jul-31 02:01:47 1008.900 17.0 44 4.6         1437.96
2017-Jul-31 03:01:17 1008.600 15.8 49 5.1         1437.96
2017-Jul-31 04:01:19 1008.100 14.9 53 5.4         1437.96
2017-Jul-31 05:01:15 1008.100 14.1 55 5.2         1437.96
2017-Jul-31 06:01:17 1007.500 13.9 55 5.0         1437.96
2017-Jul-31 07:01:52 1007.500 13.9 56 5.3         1437.96
2017-Jul-31 08:01:56 1007.600 14.1 61 6.7         1437.96
2017-Jul-31 09:01:39 1007.600 21.9 50 11.0         1437.96
2017-Jul-31 10:01:56 1007.200 28.2 37 12.1         1437.96
2017-Jul-31 11:01:50 1006.800 33.8 26 11.4         1437.96
2017-Jul-31 12:01:53 1006.900 37.3 19 9.6         1437.96
2017-Jul-31 13:01:48 1006.700 38.9 17 8.9         1437.96
2017-Jul-31 14:01:48 1006.300 37.6 17 7.9 0.5 SSW     1437.96
2017-Jul-31 15:01:57 1006.200 39.4 16 8.3         1437.96
2017-Jul-31 16:01:31 1005.900 41.0 19 12.6         1437.96
2017-Jul-31 17:01:34 1005.500 38.9 23 13.8         1437.96
2017-Jul-31 18:01:36 1005.300 36.2 25 12.8         1437.96
2017-Jul-31 19:31:51 1005.300 33.4 30 13.5         1437.96
2017-Jul-31 20:01:44 1005.700 32.6 31 13.3         1437.96
2017-Jul-31 21:01:32 1006.300 29.5 35 12.3         1437.96
2017-Jul-31 22:01:49 1006.900 26.4 39 11.3         1437.96
2017-Jul-31 23:01:40 1007.800 23.4 46 11.1         1437.96

Temperatura Máxima:41°    Temperatura Mínima:13°
Presión Máxima:1009.300 Hpa    Presión Mínima:1005.300 Hpa


Volver